sensor_id;sensor_type;location;lat;lon;timestamp;P1;durP1;ratioP1;P2;durP2;ratioP2
40637;SDS011;26336;44.696;10.622;2024-02-26T00:03:02;5.57;;;3.30;;
40637;SDS011;26336;44.696;10.622;2024-02-26T00:06:06;5.00;;;3.77;;
40637;SDS011;26336;44.696;10.622;2024-02-26T00:09:09;5.43;;;3.80;;
40637;SDS011;26336;44.696;10.622;2024-02-26T00:12:13;4.33;;;3.70;;
40637;SDS011;26336;44.696;10.622;2024-02-26T00:15:17;5.00;;;3.07;;
40637;SDS011;26336;44.696;10.622;2024-02-26T00:18:21;4.37;;;2.67;;
40637;SDS011;26336;44.696;10.622;2024-02-26T00:21:25;4.13;;;3.03;;
40637;SDS011;26336;44.696;10.622;2024-02-26T00:24:29;4.67;;;3.07;;
40637;SDS011;26336;44.696;10.622;2024-02-26T00:27:32;4.80;;;2.90;;
40637;SDS011;26336;44.696;10.622;2024-02-26T00:30:36;5.47;;;3.33;;
40637;SDS011;26336;44.696;10.622;2024-02-26T00:33:40;4.33;;;3.00;;
40637;SDS011;26336;44.696;10.622;2024-02-26T00:36:44;7.47;;;4.20;;
40637;SDS011;26336;44.696;10.622;2024-02-26T00:39:48;6.00;;;4.23;;
40637;SDS011;26336;44.696;10.622;2024-02-26T00:42:52;6.97;;;4.50;;
40637;SDS011;26336;44.696;10.622;2024-02-26T00:45:56;6.00;;;4.83;;
40637;SDS011;26336;44.696;10.622;2024-02-26T00:49:00;7.57;;;5.23;;
40637;SDS011;26336;44.696;10.622;2024-02-26T00:52:05;9.00;;;5.93;;
40637;SDS011;26336;44.696;10.622;2024-02-26T00:55:09;6.97;;;5.87;;
40637;SDS011;26336;44.696;10.622;2024-02-26T00:58:13;8.50;;;5.57;;
40637;SDS011;26336;44.696;10.622;2024-02-26T01:01:18;8.67;;;5.00;;
40637;SDS011;26336;44.696;10.622;2024-02-26T01:04:22;6.43;;;4.40;;
40637;SDS011;26336;44.696;10.622;2024-02-26T01:07:26;5.97;;;4.47;;
40637;SDS011;26336;44.696;10.622;2024-02-26T01:10:30;8.90;;;4.60;;
40637;SDS011;26336;44.696;10.622;2024-02-26T01:13:34;8.27;;;5.10;;
40637;SDS011;26336;44.696;10.622;2024-02-26T01:16:38;7.77;;;5.50;;
40637;SDS011;26336;44.696;10.622;2024-02-26T01:19:42;6.37;;;5.53;;
40637;SDS011;26336;44.696;10.622;2024-02-26T01:22:47;8.40;;;5.97;;
40637;SDS011;26336;44.696;10.622;2024-02-26T01:25:51;12.77;;;6.80;;
40637;SDS011;26336;44.696;10.622;2024-02-26T01:28:55;9.47;;;6.87;;
40637;SDS011;26336;44.696;10.622;2024-02-26T01:31:58;9.00;;;6.87;;
40637;SDS011;26336;44.696;10.622;2024-02-26T01:35:02;7.50;;;5.80;;
40637;SDS011;26336;44.696;10.622;2024-02-26T01:38:06;10.90;;;6.57;;
40637;SDS011;26336;44.696;10.622;2024-02-26T01:41:10;6.87;;;5.80;;
40637;SDS011;26336;44.696;10.622;2024-02-26T01:44:14;8.70;;;6.30;;
40637;SDS011;26336;44.696;10.622;2024-02-26T01:47:18;10.17;;;6.43;;
40637;SDS011;26336;44.696;10.622;2024-02-26T01:50:23;10.27;;;6.13;;
40637;SDS011;26336;44.696;10.622;2024-02-26T01:53:28;9.77;;;6.30;;
40637;SDS011;26336;44.696;10.622;2024-02-26T01:56:32;6.87;;;5.70;;
40637;SDS011;26336;44.696;10.622;2024-02-26T01:59:36;8.53;;;5.37;;
40637;SDS011;26336;44.696;10.622;2024-02-26T02:02:42;6.03;;;4.40;;
40637;SDS011;26336;44.696;10.622;2024-02-26T02:05:48;6.80;;;4.83;;
40637;SDS011;26336;44.696;10.622;2024-02-26T02:08:52;8.23;;;5.40;;
40637;SDS011;26336;44.696;10.622;2024-02-26T02:11:57;8.67;;;5.60;;
40637;SDS011;26336;44.696;10.622;2024-02-26T02:15:02;7.23;;;5.30;;
40637;SDS011;26336;44.696;10.622;2024-02-26T02:18:07;8.73;;;5.77;;
40637;SDS011;26336;44.696;10.622;2024-02-26T02:21:11;10.50;;;5.57;;
40637;SDS011;26336;44.696;10.622;2024-02-26T02:24:15;8.17;;;5.50;;
40637;SDS011;26336;44.696;10.622;2024-02-26T02:27:19;5.30;;;4.53;;
40637;SDS011;26336;44.696;10.622;2024-02-26T02:30:25;5.60;;;4.93;;
40637;SDS011;26336;44.696;10.622;2024-02-26T02:33:33;8.20;;;5.00;;
40637;SDS011;26336;44.696;10.622;2024-02-26T02:36:59;5.77;;;4.50;;
40637;SDS011;26336;44.696;10.622;2024-02-26T02:40:03;4.30;;;3.83;;
40637;SDS011;26336;44.696;10.622;2024-02-26T02:43:08;5.17;;;3.60;;
40637;SDS011;26336;44.696;10.622;2024-02-26T02:46:12;4.00;;;3.37;;
40637;SDS011;26336;44.696;10.622;2024-02-26T02:49:16;6.20;;;3.80;;
40637;SDS011;26336;44.696;10.622;2024-02-26T02:52:20;6.00;;;4.03;;
40637;SDS011;26336;44.696;10.622;2024-02-26T02:55:24;7.10;;;4.20;;
40637;SDS011;26336;44.696;10.622;2024-02-26T02:58:28;4.40;;;3.80;;
40637;SDS011;26336;44.696;10.622;2024-02-26T03:01:32;5.13;;;3.80;;
40637;SDS011;26336;44.696;10.622;2024-02-26T03:04:36;4.77;;;3.67;;
40637;SDS011;26336;44.696;10.622;2024-02-26T03:07:40;6.97;;;4.00;;
40637;SDS011;26336;44.696;10.622;2024-02-26T03:10:44;5.47;;;3.53;;
40637;SDS011;26336;44.696;10.622;2024-02-26T03:13:48;6.50;;;3.97;;
40637;SDS011;26336;44.696;10.622;2024-02-26T03:16:55;4.33;;;3.57;;
40637;SDS011;26336;44.696;10.622;2024-02-26T03:19:59;6.23;;;4.00;;
40637;SDS011;26336;44.696;10.622;2024-02-26T03:23:04;6.90;;;4.17;;
40637;SDS011;26336;44.696;10.622;2024-02-26T03:26:08;4.73;;;3.33;;
40637;SDS011;26336;44.696;10.622;2024-02-26T03:29:18;4.90;;;3.73;;
40637;SDS011;26336;44.696;10.622;2024-02-26T03:32:21;4.10;;;3.10;;
40637;SDS011;26336;44.696;10.622;2024-02-26T03:35:25;6.73;;;3.57;;
40637;SDS011;26336;44.696;10.622;2024-02-26T03:38:29;4.40;;;3.53;;
40637;SDS011;26336;44.696;10.622;2024-02-26T03:41:34;5.23;;;3.50;;
40637;SDS011;26336;44.696;10.622;2024-02-26T03:44:38;5.10;;;3.73;;
40637;SDS011;26336;44.696;10.622;2024-02-26T03:47:42;6.07;;;3.97;;
40637;SDS011;26336;44.696;10.622;2024-02-26T03:50:45;4.87;;;3.63;;
40637;SDS011;26336;44.696;10.622;2024-02-26T03:53:49;5.97;;;3.93;;
40637;SDS011;26336;44.696;10.622;2024-02-26T03:56:53;4.93;;;3.60;;
40637;SDS011;26336;44.696;10.622;2024-02-26T03:59:57;4.60;;;4.00;;
40637;SDS011;26336;44.696;10.622;2024-02-26T04:03:01;6.70;;;4.03;;
40637;SDS011;26336;44.696;10.622;2024-02-26T04:06:08;5.67;;;3.53;;
40637;SDS011;26336;44.696;10.622;2024-02-26T04:09:14;4.90;;;3.67;;
40637;SDS011;26336;44.696;10.622;2024-02-26T04:12:17;3.80;;;3.33;;
40637;SDS011;26336;44.696;10.622;2024-02-26T04:15:21;5.17;;;4.07;;
40637;SDS011;26336;44.696;10.622;2024-02-26T04:18:25;6.37;;;3.77;;
40637;SDS011;26336;44.696;10.622;2024-02-26T04:21:29;7.27;;;4.60;;
40637;SDS011;26336;44.696;10.622;2024-02-26T04:24:33;8.47;;;5.10;;
40637;SDS011;26336;44.696;10.622;2024-02-26T04:27:39;4.73;;;4.23;;
40637;SDS011;26336;44.696;10.622;2024-02-26T04:30:43;5.43;;;4.50;;
40637;SDS011;26336;44.696;10.622;2024-02-26T04:33:47;5.50;;;4.73;;
40637;SDS011;26336;44.696;10.622;2024-02-26T04:36:50;5.90;;;4.60;;
40637;SDS011;26336;44.696;10.622;2024-02-26T04:39:54;5.30;;;4.40;;
40637;SDS011;26336;44.696;10.622;2024-02-26T04:42:59;5.03;;;4.07;;
40637;SDS011;26336;44.696;10.622;2024-02-26T04:46:02;4.90;;;4.20;;
40637;SDS011;26336;44.696;10.622;2024-02-26T04:49:06;6.70;;;4.57;;
40637;SDS011;26336;44.696;10.622;2024-02-26T04:52:11;7.53;;;5.50;;
40637;SDS011;26336;44.696;10.622;2024-02-26T04:55:15;6.43;;;5.57;;
40637;SDS011;26336;44.696;10.622;2024-02-26T04:58:19;6.90;;;5.53;;
40637;SDS011;26336;44.696;10.622;2024-02-26T05:01:22;7.13;;;5.47;;
40637;SDS011;26336;44.696;10.622;2024-02-26T05:04:27;9.30;;;6.23;;
40637;SDS011;26336;44.696;10.622;2024-02-26T05:07:31;6.80;;;5.73;;
40637;SDS011;26336;44.696;10.622;2024-02-26T05:10:36;9.07;;;5.97;;
40637;SDS011;26336;44.696;10.622;2024-02-26T05:13:43;9.73;;;7.17;;
40637;SDS011;26336;44.696;10.622;2024-02-26T05:16:48;10.47;;;7.67;;
40637;SDS011;26336;44.696;10.622;2024-02-26T05:19:52;9.23;;;8.20;;
40637;SDS011;26336;44.696;10.622;2024-02-26T05:22:56;10.90;;;8.60;;
40637;SDS011;26336;44.696;10.622;2024-02-26T05:26:02;12.73;;;9.43;;
40637;SDS011;26336;44.696;10.622;2024-02-26T05:29:06;16.93;;;10.37;;
40637;SDS011;26336;44.696;10.622;2024-02-26T05:32:09;10.77;;;8.67;;
40637;SDS011;26336;44.696;10.622;2024-02-26T05:35:13;17.53;;;11.67;;
40637;SDS011;26336;44.696;10.622;2024-02-26T05:38:18;15.30;;;12.20;;
40637;SDS011;26336;44.696;10.622;2024-02-26T05:41:22;14.93;;;11.57;;
40637;SDS011;26336;44.696;10.622;2024-02-26T05:44:29;13.30;;;10.23;;
40637;SDS011;26336;44.696;10.622;2024-02-26T05:47:33;15.17;;;11.30;;
40637;SDS011;26336;44.696;10.622;2024-02-26T05:50:37;16.63;;;13.20;;
40637;SDS011;26336;44.696;10.622;2024-02-26T05:53:41;16.43;;;13.03;;
40637;SDS011;26336;44.696;10.622;2024-02-26T05:56:45;16.43;;;12.33;;
40637;SDS011;26336;44.696;10.622;2024-02-26T05:59:49;15.77;;;12.80;;
40637;SDS011;26336;44.696;10.622;2024-02-26T06:02:53;17.83;;;12.47;;
40637;SDS011;26336;44.696;10.622;2024-02-26T06:05:56;19.70;;;12.93;;
40637;SDS011;26336;44.696;10.622;2024-02-26T06:09:00;13.23;;;11.20;;
40637;SDS011;26336;44.696;10.622;2024-02-26T06:12:04;15.57;;;11.67;;
40637;SDS011;26336;44.696;10.622;2024-02-26T06:15:09;15.17;;;11.10;;
40637;SDS011;26336;44.696;10.622;2024-02-26T06:18:14;15.33;;;10.50;;
40637;SDS011;26336;44.696;10.622;2024-02-26T06:21:17;24.23;;;15.73;;
40637;SDS011;26336;44.696;10.622;2024-02-26T06:24:21;17.70;;;13.43;;
40637;SDS011;26336;44.696;10.622;2024-02-26T06:27:25;17.33;;;12.53;;
40637;SDS011;26336;44.696;10.622;2024-02-26T06:30:29;13.17;;;11.60;;
40637;SDS011;26336;44.696;10.622;2024-02-26T06:33:33;14.27;;;11.87;;
40637;SDS011;26336;44.696;10.622;2024-02-26T06:36:37;13.37;;;10.93;;
40637;SDS011;26336;44.696;10.622;2024-02-26T06:39:41;13.97;;;10.77;;
40637;SDS011;26336;44.696;10.622;2024-02-26T06:42:45;12.53;;;10.33;;
40637;SDS011;26336;44.696;10.622;2024-02-26T06:45:49;14.50;;;10.93;;
40637;SDS011;26336;44.696;10.622;2024-02-26T06:48:52;14.20;;;12.27;;
40637;SDS011;26336;44.696;10.622;2024-02-26T06:51:56;15.93;;;13.90;;
40637;SDS011;26336;44.696;10.622;2024-02-26T06:55:00;20.93;;;15.53;;
40637;SDS011;26336;44.696;10.622;2024-02-26T06:58:04;20.10;;;14.63;;
40637;SDS011;26336;44.696;10.622;2024-02-26T07:01:08;19.20;;;16.80;;
40637;SDS011;26336;44.696;10.622;2024-02-26T07:04:15;20.07;;;16.60;;
40637;SDS011;26336;44.696;10.622;2024-02-26T07:07:19;17.97;;;16.07;;
40637;SDS011;26336;44.696;10.622;2024-02-26T07:10:23;21.83;;;16.33;;
40637;SDS011;26336;44.696;10.622;2024-02-26T07:13:27;21.03;;;18.90;;
40637;SDS011;26336;44.696;10.622;2024-02-26T07:16:39;20.55;;;17.35;;
40637;SDS011;26336;44.696;10.622;2024-02-26T07:19:43;20.47;;;16.63;;
40637;SDS011;26336;44.696;10.622;2024-02-26T07:22:47;20.13;;;16.60;;
40637;SDS011;26336;44.696;10.622;2024-02-26T07:25:51;22.23;;;18.13;;
40637;SDS011;26336;44.696;10.622;2024-02-26T07:28:55;24.67;;;19.63;;
40637;SDS011;26336;44.696;10.622;2024-02-26T07:31:59;26.20;;;21.67;;
40637;SDS011;26336;44.696;10.622;2024-02-26T07:35:03;33.63;;;24.77;;
40637;SDS011;26336;44.696;10.622;2024-02-26T07:38:08;27.67;;;24.67;;
40637;SDS011;26336;44.696;10.622;2024-02-26T07:41:12;29.63;;;25.30;;
40637;SDS011;26336;44.696;10.622;2024-02-26T07:44:17;28.70;;;24.63;;
40637;SDS011;26336;44.696;10.622;2024-02-26T07:47:21;29.17;;;25.43;;
40637;SDS011;26336;44.696;10.622;2024-02-26T07:50:26;29.43;;;24.27;;
40637;SDS011;26336;44.696;10.622;2024-02-26T07:53:30;26.90;;;22.77;;
40637;SDS011;26336;44.696;10.622;2024-02-26T07:56:34;25.47;;;21.13;;
40637;SDS011;26336;44.696;10.622;2024-02-26T07:59:40;25.43;;;21.07;;
40637;SDS011;26336;44.696;10.622;2024-02-26T08:02:44;22.43;;;17.53;;
40637;SDS011;26336;44.696;10.622;2024-02-26T08:05:48;21.40;;;17.17;;
40637;SDS011;26336;44.696;10.622;2024-02-26T08:08:52;18.47;;;15.20;;
40637;SDS011;26336;44.696;10.622;2024-02-26T08:11:56;19.23;;;14.87;;
40637;SDS011;26336;44.696;10.622;2024-02-26T08:15:00;16.30;;;13.40;;
40637;SDS011;26336;44.696;10.622;2024-02-26T08:18:04;15.20;;;12.27;;
40637;SDS011;26336;44.696;10.622;2024-02-26T08:21:08;20.00;;;12.13;;
40637;SDS011;26336;44.696;10.622;2024-02-26T08:24:13;13.87;;;11.40;;
40637;SDS011;26336;44.696;10.622;2024-02-26T08:27:17;13.23;;;10.03;;
40637;SDS011;26336;44.696;10.622;2024-02-26T08:30:21;13.33;;;9.33;;
40637;SDS011;26336;44.696;10.622;2024-02-26T08:33:25;9.27;;;7.47;;
40637;SDS011;26336;44.696;10.622;2024-02-26T08:36:30;10.47;;;7.10;;
40637;SDS011;26336;44.696;10.622;2024-02-26T08:39:37;9.70;;;8.00;;
40637;SDS011;26336;44.696;10.622;2024-02-26T08:42:42;11.33;;;7.50;;
40637;SDS011;26336;44.696;10.622;2024-02-26T08:45:46;11.57;;;7.87;;
40637;SDS011;26336;44.696;10.622;2024-02-26T08:48:50;10.73;;;8.20;;
40637;SDS011;26336;44.696;10.622;2024-02-26T08:51:54;9.83;;;8.37;;
40637;SDS011;26336;44.696;10.622;2024-02-26T08:54:59;8.87;;;7.87;;
40637;SDS011;26336;44.696;10.622;2024-02-26T08:58:03;11.20;;;7.87;;
40637;SDS011;26336;44.696;10.622;2024-02-26T09:01:07;10.83;;;8.13;;
40637;SDS011;26336;44.696;10.622;2024-02-26T09:04:11;13.07;;;8.93;;
40637;SDS011;26336;44.696;10.622;2024-02-26T09:07:16;9.87;;;8.67;;
40637;SDS011;26336;44.696;10.622;2024-02-26T09:10:20;12.70;;;7.83;;
40637;SDS011;26336;44.696;10.622;2024-02-26T09:13:24;10.40;;;8.40;;
40637;SDS011;26336;44.696;10.622;2024-02-26T09:16:27;10.33;;;9.17;;
40637;SDS011;26336;44.696;10.622;2024-02-26T09:19:32;12.93;;;8.80;;
40637;SDS011;26336;44.696;10.622;2024-02-26T09:22:36;12.20;;;8.90;;
40637;SDS011;26336;44.696;10.622;2024-02-26T09:25:40;10.67;;;9.07;;
40637;SDS011;26336;44.696;10.622;2024-02-26T09:28:44;12.00;;;9.80;;
40637;SDS011;26336;44.696;10.622;2024-02-26T09:31:48;14.77;;;10.13;;
40637;SDS011;26336;44.696;10.622;2024-02-26T09:34:52;13.07;;;10.73;;
40637;SDS011;26336;44.696;10.622;2024-02-26T09:37:56;14.13;;;11.20;;
40637;SDS011;26336;44.696;10.622;2024-02-26T09:41:01;15.17;;;10.83;;
40637;SDS011;26336;44.696;10.622;2024-02-26T09:44:05;15.13;;;10.97;;
40637;SDS011;26336;44.696;10.622;2024-02-26T09:47:10;14.07;;;12.03;;
40637;SDS011;26336;44.696;10.622;2024-02-26T09:50:17;12.97;;;10.73;;
40637;SDS011;26336;44.696;10.622;2024-02-26T09:53:25;13.27;;;11.20;;
40637;SDS011;26336;44.696;10.622;2024-02-26T09:56:32;12.67;;;10.13;;
40637;SDS011;26336;44.696;10.622;2024-02-26T09:59:38;13.87;;;10.30;;
40637;SDS011;26336;44.696;10.622;2024-02-26T10:02:48;11.98;;;9.98;;
40637;SDS011;26336;44.696;10.622;2024-02-26T10:05:54;14.13;;;11.30;;
40637;SDS011;26336;44.696;10.622;2024-02-26T10:08:59;14.37;;;10.87;;
40637;SDS011;26336;44.696;10.622;2024-02-26T10:12:07;11.67;;;8.93;;
40637;SDS011;26336;44.696;10.622;2024-02-26T10:15:14;13.67;;;10.63;;
40637;SDS011;26336;44.696;10.622;2024-02-26T10:18:18;15.23;;;9.40;;
40637;SDS011;26336;44.696;10.622;2024-02-26T10:21:22;14.47;;;9.40;;
40637;SDS011;26336;44.696;10.622;2024-02-26T10:24:27;10.77;;;8.93;;
40637;SDS011;26336;44.696;10.622;2024-02-26T10:27:32;10.67;;;9.00;;
40637;SDS011;26336;44.696;10.622;2024-02-26T10:30:36;11.37;;;9.20;;
40637;SDS011;26336;44.696;10.622;2024-02-26T10:33:41;12.70;;;8.47;;
40637;SDS011;26336;44.696;10.622;2024-02-26T10:36:46;11.27;;;9.17;;
40637;SDS011;26336;44.696;10.622;2024-02-26T10:39:50;10.83;;;8.13;;
40637;SDS011;26336;44.696;10.622;2024-02-26T10:42:54;11.70;;;7.40;;
40637;SDS011;26336;44.696;10.622;2024-02-26T10:45:58;11.67;;;8.30;;
40637;SDS011;26336;44.696;10.622;2024-02-26T10:49:02;9.23;;;6.97;;
40637;SDS011;26336;44.696;10.622;2024-02-26T10:52:09;11.20;;;7.50;;
40637;SDS011;26336;44.696;10.622;2024-02-26T10:55:15;10.33;;;6.63;;
40637;SDS011;26336;44.696;10.622;2024-02-26T10:58:21;9.13;;;6.70;;
40637;SDS011;26336;44.696;10.622;2024-02-26T11:01:26;7.67;;;6.60;;
40637;SDS011;26336;44.696;10.622;2024-02-26T11:04:32;11.13;;;6.77;;
40637;SDS011;26336;44.696;10.622;2024-02-26T11:07:37;9.53;;;5.83;;
40637;SDS011;26336;44.696;10.622;2024-02-26T11:10:41;8.77;;;7.03;;
40637;SDS011;26336;44.696;10.622;2024-02-26T11:13:46;7.47;;;6.27;;
40637;SDS011;26336;44.696;10.622;2024-02-26T11:16:54;11.23;;;7.40;;
40637;SDS011;26336;44.696;10.622;2024-02-26T11:19:59;8.70;;;6.50;;
40637;SDS011;26336;44.696;10.622;2024-02-26T11:23:03;9.07;;;6.90;;
40637;SDS011;26336;44.696;10.622;2024-02-26T11:26:07;9.40;;;7.47;;
40637;SDS011;26336;44.696;10.622;2024-02-26T11:29:15;7.87;;;6.47;;
40637;SDS011;26336;44.696;10.622;2024-02-26T11:32:23;8.80;;;7.23;;
40637;SDS011;26336;44.696;10.622;2024-02-26T11:35:30;13.47;;;8.10;;
40637;SDS011;26336;44.696;10.622;2024-02-26T11:38:34;12.23;;;7.30;;
40637;SDS011;26336;44.696;10.622;2024-02-26T11:41:38;8.47;;;6.67;;
40637;SDS011;26336;44.696;10.622;2024-02-26T11:44:42;8.17;;;7.30;;
40637;SDS011;26336;44.696;10.622;2024-02-26T11:47:55;10.43;;;7.27;;
40637;SDS011;26336;44.696;10.622;2024-02-26T11:50:59;11.60;;;6.60;;
40637;SDS011;26336;44.696;10.622;2024-02-26T11:54:04;8.70;;;5.90;;
40637;SDS011;26336;44.696;10.622;2024-02-26T12:00:25;7.23;;;5.83;;
40637;SDS011;26336;44.696;10.622;2024-02-26T12:03:29;9.90;;;6.17;;
40637;SDS011;26336;44.696;10.622;2024-02-26T12:06:45;9.93;;;6.13;;
40637;SDS011;26336;44.696;10.622;2024-02-26T12:09:50;6.63;;;5.60;;
40637;SDS011;26336;44.696;10.622;2024-02-26T12:12:58;6.17;;;4.83;;
40637;SDS011;26336;44.696;10.622;2024-02-26T12:16:05;6.60;;;4.97;;
40637;SDS011;26336;44.696;10.622;2024-02-26T12:19:10;8.07;;;5.10;;
40637;SDS011;26336;44.696;10.622;2024-02-26T12:22:14;5.53;;;4.60;;
40637;SDS011;26336;44.696;10.622;2024-02-26T12:25:19;5.70;;;3.53;;
40637;SDS011;26336;44.696;10.622;2024-02-26T12:28:29;4.50;;;3.50;;
40637;SDS011;26336;44.696;10.622;2024-02-26T12:31:33;4.23;;;3.53;;
40637;SDS011;26336;44.696;10.622;2024-02-26T12:34:40;3.50;;;3.10;;
40637;SDS011;26336;44.696;10.622;2024-02-26T12:37:44;6.17;;;3.37;;
40637;SDS011;26336;44.696;10.622;2024-02-26T12:40:49;5.43;;;3.40;;
40637;SDS011;26336;44.696;10.622;2024-02-26T12:43:57;6.40;;;3.77;;
40637;SDS011;26336;44.696;10.622;2024-02-26T12:47:02;6.23;;;3.63;;
40637;SDS011;26336;44.696;10.622;2024-02-26T12:50:08;7.07;;;3.60;;
40637;SDS011;26336;44.696;10.622;2024-02-26T12:53:13;5.27;;;3.40;;
40637;SDS011;26336;44.696;10.622;2024-02-26T12:56:17;4.73;;;3.70;;
40637;SDS011;26336;44.696;10.622;2024-02-26T12:59:21;6.23;;;3.67;;
40637;SDS011;26336;44.696;10.622;2024-02-26T13:02:26;3.97;;;3.47;;
40637;SDS011;26336;44.696;10.622;2024-02-26T13:05:30;5.73;;;4.43;;
40637;SDS011;26336;44.696;10.622;2024-02-26T13:08:35;5.43;;;3.80;;
40637;SDS011;26336;44.696;10.622;2024-02-26T13:11:40;8.90;;;4.73;;
40637;SDS011;26336;44.696;10.622;2024-02-26T13:14:47;7.10;;;5.00;;
40637;SDS011;26336;44.696;10.622;2024-02-26T13:17:51;10.60;;;6.90;;
40637;SDS011;26336;44.696;10.622;2024-02-26T13:21:07;14.33;;;7.47;;
40637;SDS011;26336;44.696;10.622;2024-02-26T13:24:16;10.33;;;7.60;;
40637;SDS011;26336;44.696;10.622;2024-02-26T13:27:24;10.83;;;7.63;;
40637;SDS011;26336;44.696;10.622;2024-02-26T13:30:29;9.50;;;7.47;;
40637;SDS011;26336;44.696;10.622;2024-02-26T13:33:33;9.67;;;7.70;;
40637;SDS011;26336;44.696;10.622;2024-02-26T13:36:44;10.23;;;7.37;;
40637;SDS011;26336;44.696;10.622;2024-02-26T13:39:48;9.30;;;7.40;;
40637;SDS011;26336;44.696;10.622;2024-02-26T13:42:52;8.47;;;6.60;;
40637;SDS011;26336;44.696;10.622;2024-02-26T13:45:56;7.83;;;6.80;;
40637;SDS011;26336;44.696;10.622;2024-02-26T13:49:00;10.10;;;8.10;;
40637;SDS011;26336;44.696;10.622;2024-02-26T13:52:04;11.30;;;8.00;;
40637;SDS011;26336;44.696;10.622;2024-02-26T13:55:08;9.17;;;7.97;;
40637;SDS011;26336;44.696;10.622;2024-02-26T13:58:12;8.33;;;7.50;;
40637;SDS011;26336;44.696;10.622;2024-02-26T14:01:17;9.03;;;6.87;;
40637;SDS011;26336;44.696;10.622;2024-02-26T14:04:21;11.03;;;8.47;;
40637;SDS011;26336;44.696;10.622;2024-02-26T14:07:25;11.07;;;8.20;;
40637;SDS011;26336;44.696;10.622;2024-02-26T14:10:29;9.27;;;6.97;;
40637;SDS011;26336;44.696;10.622;2024-02-26T14:13:34;11.40;;;6.80;;
40637;SDS011;26336;44.696;10.622;2024-02-26T14:16:38;7.67;;;6.37;;
40637;SDS011;26336;44.696;10.622;2024-02-26T14:19:42;5.50;;;4.90;;
40637;SDS011;26336;44.696;10.622;2024-02-26T14:22:51;4.77;;;3.53;;
40637;SDS011;26336;44.696;10.622;2024-02-26T14:25:58;4.93;;;3.63;;
40637;SDS011;26336;44.696;10.622;2024-02-26T14:29:03;4.03;;;2.93;;
40637;SDS011;26336;44.696;10.622;2024-02-26T14:32:07;6.40;;;3.03;;
40637;SDS011;26336;44.696;10.622;2024-02-26T14:35:12;4.13;;;2.33;;
40637;SDS011;26336;44.696;10.622;2024-02-26T14:38:16;2.67;;;2.23;;
40637;SDS011;26336;44.696;10.622;2024-02-26T14:41:20;6.33;;;2.43;;
40637;SDS011;26336;44.696;10.622;2024-02-26T14:44:24;3.83;;;2.40;;
40637;SDS011;26336;44.696;10.622;2024-02-26T14:47:28;4.07;;;2.10;;
40637;SDS011;26336;44.696;10.622;2024-02-26T14:50:32;2.43;;;1.90;;
40637;SDS011;26336;44.696;10.622;2024-02-26T14:53:36;2.70;;;2.13;;
40637;SDS011;26336;44.696;10.622;2024-02-26T14:56:40;5.53;;;2.50;;
40637;SDS011;26336;44.696;10.622;2024-02-26T14:59:44;2.70;;;1.90;;
40637;SDS011;26336;44.696;10.622;2024-02-26T15:02:48;3.67;;;1.77;;
40637;SDS011;26336;44.696;10.622;2024-02-26T15:05:53;2.47;;;1.70;;
40637;SDS011;26336;44.696;10.622;2024-02-26T15:08:57;3.30;;;1.97;;
40637;SDS011;26336;44.696;10.622;2024-02-26T15:12:01;4.27;;;1.53;;
40637;SDS011;26336;44.696;10.622;2024-02-26T15:15:06;4.50;;;1.30;;
40637;SDS011;26336;44.696;10.622;2024-02-26T15:18:10;3.53;;;2.33;;
40637;SDS011;26336;44.696;10.622;2024-02-26T15:21:18;2.00;;;1.73;;
40637;SDS011;26336;44.696;10.622;2024-02-26T15:24:22;2.10;;;1.60;;
40637;SDS011;26336;44.696;10.622;2024-02-26T15:27:26;3.10;;;1.40;;
40637;SDS011;26336;44.696;10.622;2024-02-26T15:30:30;2.50;;;1.30;;
40637;SDS011;26336;44.696;10.622;2024-02-26T15:33:36;3.50;;;1.50;;
40637;SDS011;26336;44.696;10.622;2024-02-26T15:36:40;2.13;;;1.00;;
40637;SDS011;26336;44.696;10.622;2024-02-26T15:39:45;3.07;;;1.03;;
40637;SDS011;26336;44.696;10.622;2024-02-26T15:42:49;3.37;;;1.23;;
40637;SDS011;26336;44.696;10.622;2024-02-26T15:45:52;2.40;;;1.10;;
40637;SDS011;26336;44.696;10.622;2024-02-26T15:48:57;1.40;;;0.90;;
40637;SDS011;26336;44.696;10.622;2024-02-26T15:52:02;1.80;;;1.10;;
40637;SDS011;26336;44.696;10.622;2024-02-26T15:55:07;1.73;;;1.00;;
40637;SDS011;26336;44.696;10.622;2024-02-26T15:58:15;3.80;;;1.17;;
40637;SDS011;26336;44.696;10.622;2024-02-26T16:01:20;1.97;;;0.87;;
40637;SDS011;26336;44.696;10.622;2024-02-26T16:04:23;1.90;;;0.80;;
40637;SDS011;26336;44.696;10.622;2024-02-26T16:07:30;2.70;;;1.00;;
40637;SDS011;26336;44.696;10.622;2024-02-26T16:10:38;1.60;;;0.90;;
40637;SDS011;26336;44.696;10.622;2024-02-26T16:13:43;1.70;;;1.20;;
40637;SDS011;26336;44.696;10.622;2024-02-26T16:16:50;1.50;;;1.07;;
40637;SDS011;26336;44.696;10.622;2024-02-26T16:19:58;1.80;;;1.20;;
40637;SDS011;26336;44.696;10.622;2024-02-26T16:23:03;2.53;;;1.00;;
40637;SDS011;26336;44.696;10.622;2024-02-26T16:26:09;1.70;;;1.30;;
40637;SDS011;26336;44.696;10.622;2024-02-26T16:29:13;3.50;;;1.30;;
40637;SDS011;26336;44.696;10.622;2024-02-26T16:32:19;2.00;;;1.40;;
40637;SDS011;26336;44.696;10.622;2024-02-26T16:35:23;1.63;;;1.20;;
40637;SDS011;26336;44.696;10.622;2024-02-26T16:38:27;2.83;;;1.43;;
40637;SDS011;26336;44.696;10.622;2024-02-26T16:41:35;4.23;;;1.50;;
40637;SDS011;26336;44.696;10.622;2024-02-26T16:44:39;1.93;;;1.30;;
40637;SDS011;26336;44.696;10.622;2024-02-26T16:47:43;3.20;;;1.40;;
40637;SDS011;26336;44.696;10.622;2024-02-26T16:50:48;3.20;;;1.30;;
40637;SDS011;26336;44.696;10.622;2024-02-26T16:53:53;2.83;;;1.47;;
40637;SDS011;26336;44.696;10.622;2024-02-26T16:56:56;2.57;;;1.67;;
40637;SDS011;26336;44.696;10.622;2024-02-26T17:00:00;5.10;;;1.67;;
40637;SDS011;26336;44.696;10.622;2024-02-26T17:03:04;4.37;;;1.70;;
40637;SDS011;26336;44.696;10.622;2024-02-26T17:06:09;2.27;;;1.70;;
40637;SDS011;26336;44.696;10.622;2024-02-26T17:09:13;4.87;;;2.60;;
40637;SDS011;26336;44.696;10.622;2024-02-26T17:12:17;4.53;;;2.10;;
40637;SDS011;26336;44.696;10.622;2024-02-26T17:15:21;3.47;;;2.07;;
40637;SDS011;26336;44.696;10.622;2024-02-26T17:18:25;2.53;;;1.63;;
40637;SDS011;26336;44.696;10.622;2024-02-26T17:21:29;5.10;;;2.00;;
40637;SDS011;26336;44.696;10.622;2024-02-26T17:24:33;3.83;;;1.70;;
40637;SDS011;26336;44.696;10.622;2024-02-26T17:27:37;3.03;;;1.80;;
40637;SDS011;26336;44.696;10.622;2024-02-26T17:30:41;3.83;;;1.63;;
40637;SDS011;26336;44.696;10.622;2024-02-26T17:33:45;4.47;;;2.00;;
40637;SDS011;26336;44.696;10.622;2024-02-26T17:36:51;4.10;;;1.93;;
40637;SDS011;26336;44.696;10.622;2024-02-26T17:39:56;2.57;;;1.77;;
40637;SDS011;26336;44.696;10.622;2024-02-26T17:43:00;2.37;;;1.93;;
40637;SDS011;26336;44.696;10.622;2024-02-26T17:46:04;2.80;;;1.80;;
40637;SDS011;26336;44.696;10.622;2024-02-26T17:49:08;4.10;;;1.70;;
40637;SDS011;26336;44.696;10.622;2024-02-26T17:52:13;2.43;;;1.60;;
40637;SDS011;26336;44.696;10.622;2024-02-26T17:55:16;3.87;;;1.60;;
40637;SDS011;26336;44.696;10.622;2024-02-26T17:58:21;5.00;;;2.07;;
40637;SDS011;26336;44.696;10.622;2024-02-26T18:01:26;3.83;;;1.60;;
40637;SDS011;26336;44.696;10.622;2024-02-26T18:04:30;3.07;;;1.80;;
40637;SDS011;26336;44.696;10.622;2024-02-26T18:07:34;2.83;;;1.80;;
40637;SDS011;26336;44.696;10.622;2024-02-26T18:10:38;2.30;;;1.90;;
40637;SDS011;26336;44.696;10.622;2024-02-26T18:13:42;4.27;;;2.17;;